createdAt,value
2018-08-24T00:02:00.642Z,21.30
2018-08-24T00:04:28.856Z,21.30
2018-08-24T00:06:57.059Z,21.20
2018-08-24T00:09:36.480Z,21.10
2018-08-24T00:12:05.682Z,21.00
2018-08-24T00:14:33.859Z,20.90
2018-08-24T00:17:02.086Z,20.80
2018-08-24T00:19:30.496Z,20.80
2018-08-24T00:21:58.717Z,20.70
2018-08-24T00:24:26.907Z,20.60
2018-08-24T00:26:55.151Z,20.50
2018-08-24T00:29:23.367Z,20.50
2018-08-24T00:31:51.677Z,20.40
2018-08-24T00:34:19.843Z,20.40
2018-08-24T00:36:48.046Z,20.40
2018-08-24T00:39:16.280Z,20.40
2018-08-24T00:41:44.588Z,20.50
2018-08-24T00:44:12.779Z,20.60
2018-08-24T00:46:40.988Z,20.60
2018-08-24T00:49:09.212Z,20.60
2018-08-24T00:51:37.416Z,20.70
2018-08-24T00:54:05.737Z,20.70
2018-08-24T00:56:34.087Z,20.80
2018-08-24T00:59:02.300Z,20.80
2018-08-24T01:01:30.550Z,20.80
2018-08-24T01:03:59.685Z,20.70
2018-08-24T01:06:27.873Z,20.70
2018-08-24T01:08:56.080Z,20.60
2018-08-24T01:11:29.311Z,20.60
2018-08-24T01:13:57.519Z,20.50
2018-08-24T01:16:31.094Z,20.40
2018-08-24T01:18:59.907Z,20.30
2018-08-24T01:21:28.112Z,20.30
2018-08-24T01:23:56.327Z,20.20
2018-08-24T01:26:25.517Z,20.30
2018-08-24T01:28:54.348Z,20.30
2018-08-24T01:31:22.547Z,20.40
2018-08-24T01:33:50.727Z,20.30
2018-08-24T01:36:18.952Z,20.30
2018-08-24T01:38:47.139Z,20.30
2018-08-24T01:42:29.442Z,20.30
2018-08-24T01:44:58.405Z,20.20
2018-08-24T01:47:26.968Z,20.20
2018-08-24T01:49:55.174Z,20.20
2018-08-24T01:52:23.362Z,20.10
2018-08-24T01:54:51.593Z,20.10
2018-08-24T01:57:19.931Z,20.10
2018-08-24T01:59:48.140Z,20.10
2018-08-24T02:02:16.353Z,20.20
2018-08-24T02:04:44.524Z,20.20
2018-08-24T02:07:12.768Z,20.10
2018-08-24T02:09:40.951Z,20.10
2018-08-24T02:12:16.156Z,20.10
2018-08-24T02:14:44.345Z,20.00
2018-08-24T02:17:18.011Z,20.00
2018-08-24T02:19:51.636Z,19.90
2018-08-24T02:22:19.839Z,20.00
2018-08-24T02:24:48.107Z,19.90
2018-08-24T02:27:19.087Z,20.00
2018-08-24T02:29:47.275Z,20.00
2018-08-24T02:32:15.508Z,20.00
2018-08-24T02:34:43.724Z,20.00
2018-08-24T02:37:11.975Z,20.00
2018-08-24T02:39:40.195Z,20.00
2018-08-24T02:42:08.396Z,20.00
2018-08-24T02:44:36.581Z,20.00
2018-08-24T02:47:04.871Z,19.90
2018-08-24T02:49:33.091Z,20.00
2018-08-24T02:52:01.349Z,20.00
2018-08-24T02:54:29.540Z,19.90
2018-08-24T02:56:57.748Z,19.90
2018-08-24T02:59:25.942Z,19.80
2018-08-24T03:01:54.176Z,19.80
2018-08-24T03:04:22.400Z,19.70
2018-08-24T03:06:50.593Z,19.70
2018-08-24T03:09:18.840Z,19.70
2018-08-24T03:11:47.056Z,19.70
2018-08-24T03:14:18.671Z,19.70
2018-08-24T03:16:52.461Z,19.70
2018-08-24T03:19:20.675Z,19.70
2018-08-24T03:21:48.855Z,19.60
2018-08-24T03:24:17.692Z,19.60
2018-08-24T03:26:45.898Z,19.60
2018-08-24T03:29:17.016Z,19.60
2018-08-24T03:31:45.195Z,19.50
2018-08-24T03:34:13.384Z,19.50
2018-08-24T03:36:41.609Z,19.50
2018-08-24T03:39:10.355Z,19.50
2018-08-24T03:41:38.779Z,19.50
2018-08-24T03:44:10.714Z,19.50
2018-08-24T03:46:38.918Z,19.50
2018-08-24T03:49:08.059Z,19.50
2018-08-24T03:51:36.265Z,19.50
2018-08-24T03:54:09.541Z,19.40
2018-08-24T03:56:38.669Z,19.40
2018-08-24T03:59:06.891Z,19.40
2018-08-24T04:01:35.087Z,19.40
2018-08-24T04:04:03.432Z,19.30
2018-08-24T04:06:31.652Z,19.20
2018-08-24T04:08:59.899Z,19.20
2018-08-24T04:11:28.082Z,19.20
2018-08-24T04:13:59.968Z,19.10
2018-08-24T04:16:32.512Z,19.10
2018-08-24T04:19:00.727Z,19.10
2018-08-24T04:21:28.907Z,19.10
2018-08-24T04:23:57.161Z,19.10
2018-08-24T04:26:25.299Z,19.10
2018-08-24T04:28:56.587Z,19.00
2018-08-24T04:31:24.780Z,19.00
2018-08-24T04:33:53.019Z,18.90
2018-08-24T04:36:21.264Z,19.00
2018-08-24T04:38:49.468Z,18.90
2018-08-24T04:41:19.872Z,19.00
2018-08-24T04:43:52.546Z,19.10
2018-08-24T04:46:20.817Z,19.10
2018-08-24T04:48:49.614Z,19.10
2018-08-24T04:51:17.806Z,19.20
2018-08-24T04:53:46.073Z,19.30
2018-08-24T04:56:14.381Z,19.40
2018-08-24T04:58:42.563Z,19.40
2018-08-24T05:01:10.811Z,19.40
2018-08-24T05:03:39.004Z,19.40
2018-08-24T05:06:07.248Z,19.40
2018-08-24T05:08:35.458Z,19.50
2018-08-24T05:11:03.642Z,19.60
2018-08-24T05:13:31.958Z,19.60
2018-08-24T05:16:00.534Z,19.80
2018-08-24T05:18:28.731Z,19.90
2018-08-24T05:20:56.951Z,20.00
2018-08-24T05:23:25.319Z,20.20
2018-08-24T05:25:53.700Z,20.30
2018-08-24T05:28:21.887Z,20.40
2018-08-24T05:30:53.913Z,20.40
2018-08-24T05:33:22.097Z,20.40
2018-08-24T05:35:50.304Z,20.50
2018-08-24T05:38:18.502Z,20.60
2018-08-24T05:40:46.720Z,20.70
2018-08-24T05:43:14.938Z,20.80
2018-08-24T05:45:43.111Z,21.10
2018-08-24T05:48:11.360Z,21.70
2018-08-24T05:50:39.550Z,22.30
2018-08-24T05:53:08.116Z,22.70
2018-08-24T05:55:36.363Z,23.10
2018-08-24T05:58:04.612Z,22.80
2018-08-24T06:00:40.853Z,23.10
2018-08-24T06:03:09.725Z,23.70
2018-08-24T06:05:44.427Z,24.20
2018-08-24T06:08:12.604Z,24.10
2018-08-24T06:10:40.812Z,23.60
2018-08-24T06:13:09.835Z,23.10
2018-08-24T06:15:38.036Z,22.70
2018-08-24T06:18:06.271Z,22.10
2018-08-24T06:20:34.464Z,21.90
2018-08-24T06:23:02.699Z,21.70
2018-08-24T06:25:30.916Z,21.70
2018-08-24T06:27:59.137Z,21.50
2018-08-24T06:30:27.310Z,21.50
2018-08-24T06:32:55.630Z,21.50
2018-08-24T06:35:23.763Z,21.50
2018-08-24T06:37:51.972Z,21.30
2018-08-24T06:40:20.171Z,21.20
2018-08-24T06:42:48.490Z,21.20
2018-08-24T06:45:16.688Z,21.30
2018-08-24T06:47:44.913Z,21.30
2018-08-24T06:50:13.111Z,21.30
2018-08-24T06:52:41.320Z,21.40
2018-08-24T06:55:09.514Z,21.40
2018-08-24T06:57:37.835Z,21.40
2018-08-24T07:00:06.760Z,21.30
2018-08-24T07:02:34.957Z,21.40
2018-08-24T07:05:03.176Z,21.60
2018-08-24T07:07:31.361Z,21.60
2018-08-24T07:09:59.597Z,21.60
2018-08-24T07:12:27.771Z,21.60
2018-08-24T07:14:55.978Z,21.60
2018-08-24T07:17:29.536Z,21.40
2018-08-24T07:19:57.785Z,21.30
2018-08-24T07:22:26.072Z,21.60
2018-08-24T07:24:54.264Z,21.70
2018-08-24T07:27:22.625Z,21.70
2018-08-24T07:29:50.843Z,21.60
2018-08-24T07:32:19.040Z,21.70
2018-08-24T07:34:47.240Z,21.70
2018-08-24T07:37:15.431Z,21.80
2018-08-24T07:39:43.629Z,21.90
2018-08-24T07:42:12.007Z,22.00
2018-08-24T07:44:45.636Z,22.10
2018-08-24T07:47:13.819Z,22.50
2018-08-24T07:49:42.517Z,22.80
2018-08-24T07:52:10.689Z,22.90
2018-08-24T07:54:38.908Z,23.00
2018-08-24T07:57:07.533Z,23.00
2018-08-24T07:59:35.705Z,23.00
2018-08-24T08:02:03.886Z,23.40
2018-08-24T08:04:32.106Z,23.20
2018-08-24T08:07:00.329Z,22.70
2018-08-24T08:09:34.088Z,22.90
2018-08-24T08:12:02.928Z,23.50
2018-08-24T08:14:31.520Z,23.70
2018-08-24T08:17:00.879Z,23.80
2018-08-24T08:19:33.763Z,23.90
2018-08-24T08:22:01.980Z,23.50
2018-08-24T08:24:30.210Z,23.50
2018-08-24T08:26:58.336Z,23.60
2018-08-24T08:29:31.965Z,23.80
2018-08-24T08:32:00.187Z,23.90
2018-08-24T08:34:28.831Z,24.10
2018-08-24T08:36:57.043Z,23.90
2018-08-24T08:39:25.235Z,23.30
2018-08-24T08:41:53.487Z,23.30
2018-08-24T08:44:21.697Z,23.20
2018-08-24T08:46:49.971Z,23.10
2018-08-24T08:49:22.017Z,23.10
2018-08-24T08:51:50.238Z,23.10
2018-08-24T08:54:18.644Z,23.30
2018-08-24T08:56:46.857Z,23.20
2018-08-24T08:59:15.062Z,23.10
2018-08-24T09:01:43.280Z,23.40
2018-08-24T09:04:14.247Z,23.50
2018-08-24T09:06:43.396Z,23.40
2018-08-24T09:09:11.756Z,23.40
2018-08-24T09:11:39.960Z,23.30
2018-08-24T09:14:08.673Z,23.50
2018-08-24T09:16:36.863Z,24.00
2018-08-24T09:19:13.440Z,24.20
2018-08-24T09:21:47.095Z,24.30
2018-08-24T09:24:20.722Z,24.60
2018-08-24T09:26:54.076Z,24.50
2018-08-24T09:29:26.408Z,24.40
2018-08-24T09:31:55.028Z,23.80
2018-08-24T09:34:26.363Z,23.90
2018-08-24T09:36:54.557Z,24.00
2018-08-24T09:39:27.997Z,23.90
2018-08-24T09:41:58.111Z,24.00
2018-08-24T09:44:26.352Z,24.60
2018-08-24T09:49:07.312Z,25.00
2018-08-24T09:51:35.928Z,25.20
2018-08-24T09:54:05.480Z,24.60
2018-08-24T09:56:34.510Z,24.40
2018-08-24T09:59:02.753Z,24.90
2018-08-24T10:01:36.160Z,24.60
2018-08-24T10:04:10.545Z,24.60
2018-08-24T10:06:44.102Z,24.70
2018-08-24T10:09:14.099Z,24.60
2018-08-24T10:11:42.429Z,24.80
2018-08-24T10:14:10.949Z,24.40
2018-08-24T10:16:39.202Z,24.80
2018-08-24T10:19:10.273Z,24.40
2018-08-24T10:21:42.239Z,24.10
2018-08-24T10:24:10.601Z,23.90
2018-08-24T10:26:39.727Z,24.00
2018-08-24T10:29:08.247Z,24.20
2018-08-24T10:31:36.548Z,24.40
2018-08-24T10:34:04.779Z,23.30
2018-08-24T10:36:44.272Z,23.70
2018-08-24T10:39:12.674Z,23.50
2018-08-24T10:41:41.072Z,23.80
2018-08-24T10:44:09.350Z,24.00
2018-08-24T10:46:37.652Z,24.40
2018-08-24T10:49:05.851Z,24.20
2018-08-24T10:51:37.356Z,24.50
2018-08-24T10:54:06.244Z,24.20
2018-08-24T10:56:34.459Z,24.30
2018-08-24T10:59:02.704Z,24.60
2018-08-24T11:01:30.936Z,24.50
2018-08-24T11:03:59.122Z,24.40
2018-08-24T11:06:27.314Z,24.20
2018-08-24T11:08:55.659Z,24.50
2018-08-24T11:11:23.983Z,24.00
2018-08-24T11:13:52.178Z,24.30
2018-08-24T11:16:20.432Z,24.90
2018-08-24T11:18:48.638Z,25.30
2018-08-24T11:21:20.641Z,25.20
2018-08-24T11:23:48.849Z,25.70
2018-08-24T11:26:17.109Z,25.00
2018-08-24T11:28:45.616Z,25.00
2018-08-24T11:31:13.824Z,25.10
2018-08-24T11:33:42.060Z,25.00
2018-08-24T11:36:13.458Z,24.60
2018-08-24T11:38:41.712Z,24.40
2018-08-24T11:41:10.604Z,24.70
2018-08-24T11:43:38.884Z,25.10
2018-08-24T11:46:07.092Z,25.10
2018-08-24T11:48:35.656Z,25.30
2018-08-24T11:51:03.838Z,25.70
2018-08-24T11:53:32.107Z,25.50
2018-08-24T11:56:00.293Z,25.80
2018-08-24T11:58:28.551Z,25.40
2018-08-24T12:00:56.817Z,24.80
2018-08-24T12:03:25.019Z,24.70
2018-08-24T12:05:53.236Z,24.60
2018-08-24T12:08:24.323Z,24.60
2018-08-24T12:10:52.488Z,24.50
2018-08-24T12:13:20.663Z,24.20
2018-08-24T12:25:28.894Z,24.30
2018-08-24T12:27:57.283Z,24.20
2018-08-24T12:30:25.534Z,23.40
2018-08-24T12:32:53.733Z,23.30
2018-08-24T12:35:22.031Z,23.30
2018-08-24T12:37:50.225Z,22.80
2018-08-24T12:40:18.446Z,22.80
2018-08-24T12:42:46.723Z,23.20
2018-08-24T12:45:14.927Z,23.40
2018-08-24T12:47:43.149Z,23.70
2018-08-24T12:50:11.480Z,23.50
2018-08-24T12:52:39.760Z,23.00
2018-08-24T12:55:08.002Z,22.90
2018-08-24T12:57:36.233Z,22.90
2018-08-24T13:00:04.859Z,23.30
2018-08-24T13:02:33.083Z,23.20
2018-08-24T13:05:01.328Z,22.80
2018-08-24T13:07:29.562Z,23.20
2018-08-24T13:09:57.756Z,22.80
2018-08-24T13:12:25.994Z,22.70
2018-08-24T13:15:00.880Z,23.20
2018-08-24T13:17:29.033Z,23.50
2018-08-24T13:19:57.221Z,23.60
2018-08-24T13:22:29.031Z,22.90
2018-08-24T13:24:57.201Z,23.50
2018-08-24T13:27:25.410Z,23.80
2018-08-24T13:29:53.562Z,23.50
2018-08-24T13:32:22.314Z,22.80
2018-08-24T13:34:51.436Z,22.60
2018-08-24T13:37:19.609Z,22.40
2018-08-24T13:39:47.784Z,22.20
2018-08-24T13:42:16.028Z,22.40
2018-08-24T13:44:44.218Z,22.20
2018-08-24T13:47:12.526Z,21.90
2018-08-24T13:49:40.724Z,21.80
2018-08-24T13:52:08.928Z,21.60
2018-08-24T13:54:37.223Z,21.60
2018-08-24T13:57:17.576Z,21.50
2018-08-24T13:59:45.762Z,21.90
2018-08-24T14:02:14.236Z,21.40
2018-08-24T14:04:42.400Z,20.90
2018-08-24T14:07:10.659Z,20.70
2018-08-24T14:09:42.606Z,20.40
2018-08-24T14:12:10.816Z,20.40
2018-08-24T14:14:39.029Z,20.30
2018-08-24T14:17:07.231Z,20.00
2018-08-24T14:19:35.501Z,20.20
2018-08-24T14:22:03.701Z,20.20
2018-08-24T14:24:32.018Z,20.00
2018-08-24T14:27:03.382Z,19.50
2018-08-24T14:29:32.493Z,19.70
2018-08-24T14:32:00.711Z,19.50
2018-08-24T14:34:28.902Z,19.70
2018-08-24T14:36:57.325Z,19.80
2018-08-24T14:39:25.530Z,19.70
2018-08-24T14:41:56.852Z,19.90
2018-08-24T14:44:25.064Z,20.20
2018-08-24T14:46:53.236Z,20.30
2018-08-24T14:49:22.389Z,20.40
2018-08-24T14:51:50.605Z,20.30
2018-08-24T14:54:21.871Z,20.20
2018-08-24T14:56:50.064Z,20.10
2018-08-24T14:59:18.323Z,20.20
2018-08-24T15:01:47.261Z,20.60
2018-08-24T15:04:15.528Z,20.50
2018-08-24T15:06:43.660Z,20.50
2018-08-24T15:09:12.281Z,20.40
2018-08-24T15:11:44.468Z,20.40
2018-08-24T15:14:12.736Z,20.00
2018-08-24T15:16:40.952Z,19.90
2018-08-24T15:19:09.151Z,19.80
2018-08-24T15:21:37.416Z,19.70
2018-08-24T15:24:05.665Z,19.40
2018-08-24T15:26:38.287Z,19.30
2018-08-24T15:29:06.477Z,19.30
2018-08-24T15:31:34.679Z,19.30
2018-08-24T15:34:02.895Z,19.40
2018-08-24T15:36:31.103Z,19.50
2018-08-24T15:38:59.308Z,19.30
2018-08-24T15:41:35.595Z,19.50
2018-08-24T15:44:03.796Z,19.40
2018-08-24T15:46:32.036Z,19.40
2018-08-24T15:49:00.280Z,19.40
2018-08-24T15:51:28.484Z,19.30
2018-08-24T15:53:56.661Z,19.40
2018-08-24T15:56:27.680Z,19.30
2018-08-24T15:58:55.872Z,19.50
2018-08-24T16:01:24.092Z,19.50
2018-08-24T16:03:52.324Z,19.40
2018-08-24T16:06:20.525Z,19.50
2018-08-24T16:08:48.711Z,19.50
2018-08-24T16:11:19.872Z,19.50
2018-08-24T16:13:48.606Z,19.40
2018-08-24T16:16:16.821Z,19.40
2018-08-24T16:18:45.039Z,19.40
2018-08-24T16:21:13.279Z,19.40
2018-08-24T16:23:41.503Z,19.10
2018-08-24T16:26:23.137Z,19.00
2018-08-24T16:28:51.612Z,19.00
2018-08-24T16:31:20.108Z,19.00
2018-08-24T16:33:48.390Z,18.90
2018-08-24T16:36:16.642Z,18.80
2018-08-24T16:38:45.085Z,18.80
2018-08-24T16:41:13.482Z,18.80
2018-08-24T16:43:41.682Z,18.60
2018-08-24T16:46:09.980Z,18.50
2018-08-24T16:48:38.324Z,18.60
2018-08-24T16:51:06.545Z,18.60
2018-08-24T16:53:34.800Z,18.60
2018-08-24T16:56:07.275Z,18.70
2018-08-24T16:58:35.466Z,18.70
2018-08-24T17:15:43.394Z,18.60
2018-08-24T17:18:11.644Z,19.00
2018-08-24T17:20:39.897Z,18.90
2018-08-24T17:23:08.178Z,18.80
2018-08-24T17:25:37.309Z,19.00
2018-08-24T17:28:05.807Z,18.80
2018-08-24T17:30:34.060Z,18.80
2018-08-24T17:33:02.327Z,18.90
2018-08-24T17:35:30.611Z,18.70
2018-08-24T17:37:58.876Z,18.60
2018-08-24T17:40:27.128Z,18.60
2018-08-24T17:42:59.007Z,18.60
2018-08-24T17:45:27.275Z,18.50
2018-08-24T17:47:55.573Z,18.50
2018-08-24T17:50:23.823Z,18.40
2018-08-24T17:52:52.017Z,18.40
2018-08-24T17:55:20.189Z,18.40
2018-08-24T17:57:55.504Z,18.30
2018-08-24T18:00:23.757Z,18.30
2018-08-24T18:02:52.888Z,18.20
2018-08-24T18:05:21.175Z,18.20
2018-08-24T18:07:49.405Z,18.20
2018-08-24T18:10:17.711Z,18.10
2018-08-24T18:12:46.004Z,18.10
2018-08-24T18:15:14.280Z,18.00
2018-08-24T18:17:42.436Z,18.00
2018-08-24T18:20:10.712Z,18.00
2018-08-24T18:22:39.013Z,17.90
2018-08-24T18:25:07.272Z,18.00
2018-08-24T18:27:35.464Z,18.00
2018-08-24T18:30:03.730Z,18.10
2018-08-24T18:32:31.956Z,18.10
2018-08-24T18:35:00.248Z,18.10
2018-08-24T18:37:28.358Z,18.10
2018-08-24T18:39:56.634Z,18.00
2018-08-24T18:44:59.491Z,17.90
2018-08-24T18:47:27.694Z,17.80
2018-08-24T18:49:56.469Z,17.80
2018-08-24T18:52:24.655Z,17.80
2018-08-24T18:54:52.915Z,17.70
2018-08-24T18:57:21.568Z,17.70
2018-08-24T18:59:49.763Z,17.80
2018-08-24T19:02:17.952Z,17.80
2018-08-24T19:04:46.368Z,17.80
2018-08-24T19:07:14.604Z,17.80
2018-08-24T19:09:42.804Z,17.80
2018-08-24T19:12:16.297Z,17.70
2018-08-24T19:14:44.483Z,17.70
2018-08-24T19:17:20.999Z,17.70
2018-08-24T19:19:54.538Z,17.70
2018-08-24T19:22:22.812Z,17.60
2018-08-24T19:24:51.098Z,17.60
2018-08-24T19:27:19.314Z,17.60
2018-08-24T19:29:52.823Z,17.60
2018-08-24T19:32:20.997Z,17.60
2018-08-24T19:34:49.199Z,17.60
2018-08-24T19:37:17.414Z,17.60
2018-08-24T19:39:50.889Z,17.60
2018-08-24T19:42:24.727Z,17.50
2018-08-24T19:44:53.159Z,17.50
2018-08-24T19:47:30.026Z,17.50
2018-08-24T19:49:58.211Z,17.50
2018-08-24T19:52:26.647Z,17.50
2018-08-24T19:54:54.857Z,17.40
2018-08-24T19:57:28.399Z,17.40
2018-08-24T19:59:57.540Z,17.40
2018-08-24T20:02:25.747Z,17.40
2018-08-24T20:04:53.994Z,17.40
2018-08-24T20:07:27.568Z,17.30
2018-08-24T20:10:01.103Z,17.30
2018-08-24T20:12:29.316Z,17.30
2018-08-24T20:15:05.936Z,17.40
2018-08-24T20:17:39.240Z,17.40
2018-08-24T20:20:10.452Z,17.30
2018-08-24T20:22:38.627Z,17.30
2018-08-24T20:25:06.862Z,17.30
2018-08-24T20:27:35.863Z,17.20
2018-08-24T20:30:04.220Z,17.20
2018-08-24T20:32:32.492Z,17.20
2018-08-24T20:35:00.774Z,17.20
2018-08-24T20:37:28.986Z,17.20
2018-08-24T20:39:57.309Z,17.30
2018-08-24T20:42:25.455Z,17.20
2018-08-24T20:44:58.241Z,17.20
2018-08-24T20:47:34.059Z,17.20
2018-08-24T20:50:02.330Z,17.20
2018-08-24T20:52:30.518Z,17.20
2018-08-24T20:54:58.771Z,17.20
2018-08-24T20:57:26.931Z,17.10
2018-08-24T20:59:58.774Z,17.10
2018-08-24T21:02:27.093Z,17.10
2018-08-24T21:04:55.324Z,17.10
2018-08-24T21:07:23.580Z,17.10
2018-08-24T21:09:52.163Z,17.10
2018-08-24T21:12:20.390Z,17.10
2018-08-24T21:14:48.653Z,17.20
2018-08-24T21:17:16.771Z,17.10
2018-08-24T21:19:44.979Z,17.10
2018-08-24T21:22:13.189Z,17.20
2018-08-24T21:24:41.593Z,17.10
2018-08-24T21:27:09.824Z,17.10
2018-08-24T21:29:40.955Z,17.10
2018-08-24T21:32:09.143Z,17.10
2018-08-24T21:34:37.361Z,17.10
2018-08-24T21:37:06.473Z,17.10
2018-08-24T21:39:34.716Z,17.10
2018-08-24T21:42:03.018Z,17.10
2018-08-24T21:44:31.462Z,17.00
2018-08-24T21:47:04.012Z,17.00
2018-08-24T21:49:32.217Z,17.00
2018-08-24T21:52:00.444Z,17.00
2018-08-24T21:54:28.672Z,17.00
2018-08-24T21:56:56.866Z,16.90
2018-08-24T21:59:25.060Z,16.90
2018-08-24T22:01:56.834Z,16.90
2018-08-24T22:04:25.009Z,16.90
2018-08-24T22:06:53.207Z,16.90
2018-08-24T22:09:21.831Z,16.90
2018-08-24T22:11:50.068Z,16.90
2018-08-24T22:14:18.263Z,16.80
2018-08-24T22:16:49.703Z,16.80
2018-08-24T22:19:17.855Z,16.80
2018-08-24T22:21:46.766Z,16.80
2018-08-24T22:24:14.928Z,16.80
2018-08-24T22:26:43.178Z,16.80
2018-08-24T22:29:11.701Z,16.80
2018-08-24T22:31:39.906Z,16.80
2018-08-24T22:34:08.140Z,16.70
2018-08-24T22:36:36.340Z,16.70
2018-08-24T22:39:06.231Z,16.70
2018-08-24T22:41:34.419Z,16.70
2018-08-24T22:44:02.594Z,16.70
2018-08-24T22:46:31.085Z,16.70
2018-08-24T22:48:59.297Z,16.70
2018-08-24T22:51:27.695Z,16.70
2018-08-24T22:53:56.043Z,16.60
2018-08-24T22:56:24.384Z,16.60
2018-08-24T22:58:52.632Z,16.60
2018-08-24T23:01:20.811Z,16.50
2018-08-24T23:03:48.999Z,16.50
2018-08-24T23:06:17.191Z,16.50
2018-08-24T23:08:45.484Z,16.60
2018-08-24T23:11:13.709Z,16.60
2018-08-24T23:13:41.964Z,16.60
2018-08-24T23:16:10.156Z,16.60
2018-08-24T23:18:38.363Z,16.50
2018-08-24T23:21:06.616Z,16.50
2018-08-24T23:23:34.938Z,16.40
2018-08-24T23:26:03.179Z,16.50
2018-08-24T23:28:31.351Z,16.40
2018-08-24T23:30:59.559Z,16.40
2018-08-24T23:33:27.752Z,16.40
2018-08-24T23:35:55.964Z,16.40
2018-08-24T23:38:24.303Z,16.30
2018-08-24T23:40:52.527Z,16.40
2018-08-24T23:43:20.708Z,16.30
2018-08-24T23:45:48.930Z,16.30
2018-08-24T23:48:17.137Z,16.20
2018-08-24T23:50:45.361Z,16.30
2018-08-24T23:53:13.567Z,16.30
2018-08-24T23:55:41.839Z,16.30
2018-08-24T23:58:10.014Z,16.20
